Tripoli, Lebanon

10:59 PM EEST on August 26, 2016 (GMT +0300)
PWS, Amioun, Lebanon | | Change Station

Elev 1063 ft 34.30 °N, 35.82 °E | Updated 14 minutes ago

Scattered Clouds
Scattered Clouds
75.1 °F
Feels Like 75 °F
N
0.0
Wind Variable Wind from SSE
Gusts 0.0 mph

Today
High -- | Low -- °F
--% Chance of Precip.
Yesterday
High -- | Low -- °F
Precip. -- in
Pressure 29.89 in
Visibility 5.0 miles
Clouds Scattered Clouds 2600 ft
Heat Index 75 °F
Dew Point 71 °F
Humidity 88%
Rainfall 0.00 in
Snow Depth Not available.
6:05 AM 7:10 PM
Waning Crescent, 31% visible
METAR OLBA 261900Z 24006KT 8000 SCT026 28/23 Q1012
Pressure 29.89 in
Visibility 5.0 miles
Clouds Scattered Clouds 2600 ft
Heat Index 75 °F
Dew Point 71 °F
Humidity 88%
Rainfall 0.00 in
Snow Depth Not available.
6:05 AM 7:10 PM
Waning Crescent, 31% visible
METAR OLBA 261900Z 24006KT 8000 SCT026 28/23 Q1012

10-Day Weather Forecast

No radar image for this location.
×

Almanac

Astronomy

Aug. 26, 2016 Rise Set
Actual Time
Civil Twilight
Nautical Twilight
Astronomical Twilight
Moon
Length of Visible Light
Length of Day
Tomorrow will be .
, % of the Moon is Illuminated

Today's Extremes

Country Highs Country Lows

Community

WunderPhotos

Upload Photos

1,935,195 photos uploaded!

WunderBlog® & News

Nearby

Air Quality

  Air Quality AQ Index Pollutant
Not available.

Snow Depth

Station Depth Elevation

Earthquake Activity

City Distance Mag. Time & Date
Minimum magnitude displayed is 2.5.

Coastal Water Temperatures

Place Temperature

Stations

Nearby Weather Stations

Station Location Temp. Windchill Dew Point Humidity Wind Precip. Elev Updated Type